createdAt,value
2023-04-24T00:00:45.352Z,12.3
2023-04-24T00:02:59.168Z,12.4
2023-04-24T00:05:10.676Z,12.4
2023-04-24T00:07:19.351Z,12.5
2023-04-24T00:09:38.287Z,12.5
2023-04-24T00:11:51.075Z,12.5
2023-04-24T00:14:06.874Z,12.6
2023-04-24T00:16:16.774Z,12.6
2023-04-24T00:18:27.078Z,12.6
2023-04-24T00:20:39.286Z,12.7
2023-04-24T00:22:53.585Z,12.7
2023-04-24T00:25:07.013Z,12.7
2023-04-24T00:27:22.047Z,12.7
2023-04-24T00:29:32.370Z,12.8
2023-04-24T00:31:44.304Z,12.8
2023-04-24T00:33:56.143Z,12.8
2023-04-24T00:36:05.136Z,12.8
2023-04-24T00:38:14.140Z,12.8
2023-04-24T00:40:29.899Z,12.9
2023-04-24T00:42:48.001Z,12.8
2023-04-24T00:44:59.071Z,12.8
2023-04-24T00:47:07.669Z,12.8
2023-04-24T00:49:18.074Z,12.8
2023-04-24T00:51:27.829Z,12.7
2023-04-24T00:53:37.447Z,12.7
2023-04-24T00:55:49.365Z,12.7
2023-04-24T00:57:59.406Z,12.7
2023-04-24T01:00:17.445Z,12.7
2023-04-24T01:02:25.825Z,12.7
2023-04-24T01:04:36.423Z,12.7
2023-04-24T01:06:46.265Z,12.6
2023-04-24T01:08:55.689Z,12.6
2023-04-24T01:11:08.244Z,12.6
2023-04-24T01:13:23.339Z,12.7
2023-04-24T01:15:35.564Z,12.6
2023-04-24T01:17:44.929Z,12.6
2023-04-24T01:19:54.850Z,12.7
2023-04-24T01:22:06.674Z,12.6
2023-04-24T01:24:18.072Z,12.7
2023-04-24T01:26:29.145Z,12.7
2023-04-24T01:28:37.992Z,12.7
2023-04-24T01:30:49.048Z,12.6
2023-04-24T01:32:59.571Z,12.6
2023-04-24T01:35:18.047Z,12.6
2023-04-24T01:37:35.963Z,12.6
2023-04-24T01:39:48.255Z,12.5
2023-04-24T01:41:58.650Z,12.5
2023-04-24T01:44:06.778Z,12.5
2023-04-24T01:46:15.358Z,12.5
2023-04-24T01:48:24.489Z,12.5
2023-04-24T01:50:33.182Z,12.5
2023-04-24T01:52:42.188Z,12.5
2023-04-24T01:54:51.991Z,12.5
2023-04-24T01:57:02.089Z,12.5
2023-04-24T01:59:11.923Z,12.5
2023-04-24T02:01:24.544Z,12.5
2023-04-24T02:03:36.031Z,12.4
2023-04-24T02:05:45.916Z,12.4
2023-04-24T02:07:53.740Z,12.4
2023-04-24T02:10:06.647Z,12.4
2023-04-24T02:12:15.140Z,12.4
2023-04-24T02:14:24.858Z,12.3
2023-04-24T02:16:34.849Z,12.3
2023-04-24T02:18:43.975Z,12.3
2023-04-24T02:20:52.696Z,12.3
2023-04-24T02:23:06.236Z,12.3
2023-04-24T02:25:16.151Z,12.3
2023-04-24T02:27:24.463Z,12.3
2023-04-24T02:29:33.092Z,12.2
2023-04-24T02:31:43.103Z,12.3
2023-04-24T02:33:54.253Z,12.3
2023-04-24T02:36:05.318Z,12.2
2023-04-24T02:38:13.567Z,12.2
2023-04-24T02:40:28.675Z,12.2
2023-04-24T09:56:08.777Z,16.2
2023-04-24T09:58:26.665Z,16.4
2023-04-24T10:00:35.764Z,16.4
2023-04-24T10:02:45.110Z,16.5
2023-04-24T10:04:57.641Z,16.6
2023-04-24T10:07:07.625Z,16.8
2023-04-24T10:09:15.557Z,17
2023-04-24T10:11:24.005Z,17
2023-04-24T10:13:34.700Z,17
2023-04-24T10:15:43.843Z,16.9
2023-04-24T10:17:54.081Z,16.7
2023-04-24T10:20:03.482Z,16.4
2023-04-24T10:22:12.626Z,16.2
2023-04-24T10:24:22.280Z,16
2023-04-24T10:26:31.228Z,15.8
2023-04-24T10:28:43.268Z,15.6
2023-04-24T10:30:52.929Z,15.6
2023-04-24T10:33:01.789Z,15.6
2023-04-24T10:35:10.450Z,15.6
2023-04-24T10:37:18.467Z,15.7
2023-04-24T10:39:27.156Z,16
2023-04-24T10:41:36.049Z,16.2
2023-04-24T10:43:45.282Z,16.2
2023-04-24T10:46:04.689Z,16.2
2023-04-24T10:48:15.327Z,16.1
2023-04-24T10:50:23.547Z,16.1
2023-04-24T10:52:46.091Z,16.3
2023-04-24T10:54:53.786Z,16.5
2023-04-24T10:57:30.825Z,16.5
2023-04-24T10:59:40.722Z,16.7
2023-04-24T11:01:55.357Z,17.1
2023-04-24T11:04:05.679Z,17.2
2023-04-24T11:06:15.015Z,17.2
2023-04-24T11:08:31.349Z,17.2
2023-04-24T11:10:41.449Z,17.2
2023-04-24T11:12:49.353Z,17.2
2023-04-24T11:15:05.395Z,17.2
2023-04-24T11:17:31.486Z,17.1
2023-04-24T11:19:41.363Z,16.9
2023-04-24T11:21:51.488Z,16.8
2023-04-24T11:23:59.621Z,16.8
2023-04-24T11:26:14.320Z,16.8
2023-04-24T11:28:22.058Z,16.7
2023-04-24T11:30:32.704Z,16.9
2023-04-24T11:32:42.343Z,17.3
2023-04-24T11:34:52.575Z,17.5
2023-04-24T11:37:00.527Z,17.3
2023-04-24T11:39:08.516Z,17.2
2023-04-24T11:41:16.734Z,17.5
2023-04-24T11:43:25.041Z,17.6
2023-04-24T11:45:34.229Z,17.5
2023-04-24T11:47:42.466Z,17.3
2023-04-24T11:49:52.479Z,17.1
2023-04-24T11:52:02.038Z,16.9
2023-04-24T11:54:10.815Z,16.7
2023-04-24T11:56:20.955Z,16.6
2023-04-24T11:58:28.807Z,16.6
2023-04-24T12:00:39.188Z,16.7
2023-04-24T12:02:47.439Z,16.8
2023-04-24T12:04:56.530Z,17.2
2023-04-24T12:07:06.856Z,17
2023-04-24T12:09:18.399Z,16.9
2023-04-24T12:11:27.955Z,16.9
2023-04-24T12:13:36.425Z,16.8
2023-04-24T12:15:45.888Z,16.7
2023-04-24T12:17:54.753Z,16.6
2023-04-24T12:20:04.731Z,16.4
2023-04-24T12:22:12.470Z,16.2
2023-04-24T12:24:20.342Z,16
2023-04-24T12:26:29.961Z,15.8
2023-04-24T12:28:38.979Z,15.7
2023-04-24T12:30:50.198Z,15.8
2023-04-24T12:33:00.512Z,15.8
2023-04-24T12:35:08.886Z,16.2
2023-04-24T12:37:16.580Z,16.5
2023-04-24T12:39:27.491Z,16.6
2023-04-24T12:41:35.282Z,16.7
2023-04-24T12:43:53.771Z,16.9
2023-04-24T12:46:02.847Z,17
2023-04-24T12:48:10.866Z,17.1
2023-04-24T12:50:19.653Z,17.3
2023-04-24T12:52:29.095Z,17.6
2023-04-24T12:54:36.898Z,17.6
2023-04-24T12:56:44.657Z,17.3
2023-04-24T12:58:52.975Z,17.3
2023-04-24T13:01:02.656Z,17.4
2023-04-24T13:03:10.662Z,17.3
2023-04-24T13:05:18.590Z,17.2
2023-04-24T13:07:26.733Z,16.9
2023-04-24T13:09:36.523Z,16.6
2023-04-24T13:11:44.236Z,16.4
2023-04-24T13:13:53.718Z,16.2
2023-04-24T13:16:07.165Z,16
2023-04-24T13:18:15.695Z,15.9
2023-04-24T13:20:23.482Z,15.9
2023-04-24T13:22:31.349Z,15.8
2023-04-24T13:24:40.808Z,15.7
2023-04-24T13:26:48.558Z,15.7
2023-04-24T13:28:56.257Z,15.7
2023-04-24T13:31:04.339Z,15.8
2023-04-24T13:33:13.421Z,15.9
2023-04-24T13:35:21.230Z,15.9
2023-04-24T13:37:28.987Z,15.9
2023-04-24T13:39:37.007Z,16
2023-04-24T13:41:44.938Z,16
2023-04-24T13:43:52.758Z,16
2023-04-24T13:46:02.756Z,15.9
2023-04-24T13:48:10.843Z,15.8
2023-04-24T13:50:20.092Z,15.8
2023-04-24T13:52:27.853Z,15.9
2023-04-24T13:54:35.821Z,16.1
2023-04-24T13:56:43.959Z,16.2
2023-04-24T13:58:53.224Z,16.3
2023-04-24T14:01:02.987Z,16.2
2023-04-24T14:03:11.925Z,16.2
2023-04-24T14:05:28.717Z,16.3
2023-04-24T14:07:36.461Z,16.3
2023-04-24T14:09:44.167Z,16.4
2023-04-24T14:11:51.964Z,16.4
2023-04-24T14:13:59.777Z,16.3
2023-04-24T14:16:07.998Z,16.1
2023-04-24T14:18:15.982Z,15.9
2023-04-24T14:20:25.299Z,15.7
2023-04-24T14:22:33.038Z,15.6
2023-04-24T14:24:40.750Z,15.5
2023-04-24T14:26:48.467Z,15.4
2023-04-24T14:29:01.026Z,15.3
2023-04-24T14:31:16.405Z,15.2
2023-04-24T14:33:24.230Z,15
2023-04-24T14:35:34.960Z,14.8
2023-04-24T14:37:43.590Z,14.6
2023-04-24T14:40:00.916Z,14.5
2023-04-24T14:42:18.664Z,14.4
2023-04-24T14:44:26.957Z,14.3
2023-04-24T14:46:34.843Z,14.1
2023-04-24T14:48:42.618Z,14.1
2023-04-24T14:50:51.745Z,14.1
2023-04-24T14:53:03.108Z,14
2023-04-24T14:55:10.977Z,14
2023-04-24T14:57:19.246Z,14
2023-04-24T14:59:27.113Z,14
2023-04-24T15:01:35.055Z,14.1
2023-04-24T15:03:43.022Z,14.2
2023-04-24T15:05:52.481Z,14.1
2023-04-24T15:08:00.202Z,14
2023-04-24T15:10:09.074Z,14.1
2023-04-24T15:12:16.874Z,14.1
2023-04-24T15:14:24.576Z,14
2023-04-24T15:16:34.026Z,14
2023-04-24T15:18:41.697Z,13.9
2023-04-24T15:20:49.859Z,13.8
2023-04-24T15:23:00.251Z,13.8
2023-04-24T15:25:08.904Z,13.7
2023-04-24T15:27:16.772Z,13.7
2023-04-24T15:29:25.058Z,13.6
2023-04-24T15:31:32.959Z,13.6
2023-04-24T15:33:40.785Z,13.6
2023-04-24T15:35:49.493Z,13.5
2023-04-24T15:37:58.712Z,13.5
2023-04-24T15:40:07.838Z,13.4
2023-04-24T15:42:15.793Z,13.4
2023-04-24T15:44:24.454Z,13.3
2023-04-24T15:46:32.250Z,13.2
2023-04-24T15:48:42.024Z,13.2
2023-04-24T15:50:49.710Z,13.3
2023-04-24T15:52:58.835Z,13.2
2023-04-24T15:55:07.492Z,13.2
2023-04-24T15:57:15.351Z,13.1
2023-04-24T15:59:23.567Z,13.1
2023-04-24T16:01:32.081Z,13.1
2023-04-24T16:03:45.421Z,13
2023-04-24T16:05:54.952Z,13
2023-04-24T16:08:03.986Z,12.8
2023-04-24T16:10:12.860Z,12.5
2023-04-24T16:12:20.793Z,12.3
2023-04-24T16:14:28.535Z,12
2023-04-24T16:16:36.453Z,11.8
2023-04-24T16:18:44.246Z,11.6
2023-04-24T16:20:52.259Z,11.5
2023-04-24T16:23:00.495Z,11.4
2023-04-24T16:25:10.996Z,11.3
2023-04-24T16:27:19.085Z,11.2
2023-04-24T16:29:27.095Z,11.1
2023-04-24T16:31:34.884Z,11
2023-04-24T16:33:42.581Z,11
2023-04-24T16:35:50.928Z,10.9
2023-04-24T16:37:58.826Z,10.9
2023-04-24T16:40:10.727Z,10.8
2023-04-24T16:42:19.778Z,10.7
2023-04-24T16:44:27.698Z,10.7
2023-04-24T16:46:35.657Z,10.7
2023-04-24T16:48:43.605Z,10.7
2023-04-24T16:50:51.335Z,10.6
2023-04-24T16:52:59.112Z,10.5
2023-04-24T16:55:07.937Z,10.5
2023-04-24T16:57:16.077Z,10.5
2023-04-24T16:59:25.361Z,10.4
2023-04-24T17:01:33.117Z,10.5
2023-04-24T17:03:41.362Z,10.4
2023-04-24T17:05:49.884Z,10.4
2023-04-24T17:07:57.556Z,10.4
2023-04-24T17:10:06.042Z,10.4
2023-04-24T17:12:13.726Z,10.4
2023-04-24T17:14:22.939Z,10.4
2023-04-24T17:16:32.044Z,10.4
2023-04-24T17:18:45.292Z,10.3
2023-04-24T17:20:54.370Z,10.3
2023-04-24T17:23:02.199Z,10.3
2023-04-24T17:25:10.544Z,10.2
2023-04-24T17:27:18.472Z,10.1
2023-04-24T17:29:26.616Z,10
2023-04-24T17:31:35.815Z,10
2023-04-24T17:33:43.983Z,9.9
2023-04-24T17:35:51.950Z,9.9
2023-04-24T17:37:59.663Z,9.8
2023-04-24T17:40:09.473Z,9.7
2023-04-24T17:42:17.208Z,9.7
2023-04-24T17:44:24.889Z,9.7
2023-04-24T17:46:32.690Z,9.7
2023-04-24T17:48:41.762Z,9.6
2023-04-24T17:50:49.831Z,9.5
2023-04-24T17:52:58.184Z,9.5
2023-04-24T17:55:06.849Z,9.4
2023-04-24T17:57:14.566Z,9.4
2023-04-24T17:59:23.595Z,9.3
2023-04-24T18:01:31.395Z,9.3
2023-04-24T18:03:39.267Z,9.2
2023-04-24T18:05:49.101Z,9.2
2023-04-24T18:07:57.160Z,9.2
2023-04-24T18:10:05.271Z,9.2
2023-04-24T18:12:13.155Z,9.1
2023-04-24T18:14:20.852Z,9.1
2023-04-24T18:16:28.603Z,9.1
2023-04-24T18:18:36.489Z,9.1
2023-04-24T18:20:44.432Z,9
2023-04-24T18:22:53.531Z,9
2023-04-24T18:25:01.357Z,9
2023-04-24T18:27:09.119Z,8.9
2023-04-24T18:29:16.852Z,8.9
2023-04-24T18:31:24.845Z,8.8
2023-04-24T18:33:32.608Z,8.8
2023-04-24T18:35:40.698Z,8.8
2023-04-24T18:37:48.356Z,8.8
2023-04-24T18:39:57.435Z,8.7
2023-04-24T18:42:08.836Z,8.7
2023-04-24T18:44:17.305Z,8.7
2023-04-24T18:46:25.270Z,8.7
2023-04-24T18:48:33.098Z,8.7
2023-04-24T18:50:41.437Z,8.7
2023-04-24T18:52:49.194Z,8.7
2023-04-24T18:54:58.337Z,8.7
2023-04-24T18:57:06.446Z,8.7
2023-04-24T18:59:14.414Z,8.6
2023-04-24T19:01:23.340Z,8.6
2023-04-24T19:03:32.417Z,8.6
2023-04-24T19:05:40.206Z,8.6
2023-04-24T19:07:47.864Z,8.6
2023-04-24T19:09:55.650Z,8.6
2023-04-24T19:12:07.245Z,8.6
2023-04-24T19:14:15.985Z,8.6
2023-04-24T19:16:24.050Z,8.6
2023-04-24T19:18:31.826Z,8.6
2023-04-24T19:20:39.594Z,8.6
2023-04-24T19:22:47.680Z,8.6
2023-04-24T19:24:55.436Z,8.6
2023-04-24T19:27:03.195Z,8.6
2023-04-24T19:29:12.434Z,8.6
2023-04-24T19:31:20.262Z,8.6
2023-04-24T19:33:28.199Z,8.6
2023-04-24T19:35:36.059Z,8.6
2023-04-24T19:37:43.821Z,8.6
2023-04-24T19:39:51.580Z,8.6
2023-04-24T19:42:00.207Z,8.5
2023-04-24T19:44:07.924Z,8.5
2023-04-24T19:46:17.058Z,8.5
2023-04-24T19:48:24.987Z,8.5
2023-04-24T19:50:32.773Z,8.5
2023-04-24T19:52:40.656Z,8.5
2023-04-24T19:54:48.489Z,8.5
2023-04-24T19:56:56.864Z,8.5
2023-04-24T19:59:04.914Z,8.5
2023-04-24T20:01:12.765Z,8.5
2023-04-24T20:03:32.591Z,8.5
2023-04-24T20:05:42.529Z,8.5
2023-04-24T20:07:51.037Z,8.6
2023-04-24T20:09:58.781Z,8.6
2023-04-24T20:12:06.993Z,8.6
2023-04-24T20:14:14.723Z,8.7
2023-04-24T20:16:22.480Z,8.7
2023-04-24T20:18:31.645Z,8.7
2023-04-24T20:20:41.342Z,8.7
2023-04-24T20:22:49.135Z,8.7
2023-04-24T20:24:56.996Z,8.8
2023-04-24T20:27:05.435Z,8.8
2023-04-24T20:29:13.680Z,8.8
2023-04-24T20:31:21.413Z,8.8
2023-04-24T20:33:30.311Z,8.8
2023-04-24T20:35:39.363Z,8.9
2023-04-24T20:37:47.695Z,8.9
2023-04-24T20:39:55.864Z,8.9
2023-04-24T20:42:03.684Z,8.9
2023-04-24T20:44:11.618Z,8.9
2023-04-24T20:46:19.351Z,8.9
2023-04-24T20:48:27.367Z,8.9
2023-04-24T20:50:35.127Z,9
2023-04-24T20:52:44.172Z,8.9
2023-04-24T20:54:51.907Z,8.9
2023-04-24T20:57:06.023Z,9
2023-04-24T20:59:13.706Z,9
2023-04-24T21:01:21.475Z,9
2023-04-24T21:03:29.289Z,9
2023-04-24T21:05:37.330Z,9
2023-04-24T21:07:46.417Z,9
2023-04-24T21:09:54.107Z,9
2023-04-24T21:12:02.708Z,9
2023-04-24T21:14:10.560Z,9
2023-04-24T21:16:18.506Z,9
2023-04-24T21:18:26.438Z,9
2023-04-24T21:20:35.936Z,9
2023-04-24T21:22:51.064Z,9
2023-04-24T21:24:59.066Z,9
2023-04-24T21:27:07.400Z,9
2023-04-24T21:29:15.180Z,9
2023-04-24T21:31:23.098Z,9
2023-04-24T21:33:30.962Z,9
2023-04-24T21:35:38.639Z,9
2023-04-24T21:37:46.997Z,9
2023-04-24T21:39:56.154Z,9
2023-04-24T21:42:03.944Z,9
2023-04-24T21:44:11.900Z,9
2023-04-24T21:46:19.740Z,8.9
2023-04-24T21:48:27.519Z,8.9
2023-04-24T21:50:35.202Z,9
2023-04-24T21:52:42.859Z,8.9
2023-04-24T21:54:50.616Z,8.9
2023-04-24T21:57:01.573Z,8.9
2023-04-24T21:59:09.644Z,8.9
2023-04-24T22:01:17.512Z,9
2023-04-24T22:03:25.722Z,8.9
2023-04-24T22:05:33.615Z,8.9
2023-04-24T22:07:41.385Z,8.9
2023-04-24T22:09:49.314Z,8.9
2023-04-24T22:11:57.512Z,8.9
2023-04-24T22:14:07.410Z,8.9
2023-04-24T22:16:25.652Z,8.9
2023-04-24T22:18:46.328Z,8.9
2023-04-24T22:20:56.373Z,8.9
2023-04-24T22:23:04.667Z,8.9
2023-04-24T22:25:43.814Z,8.9
2023-04-24T22:27:41.304Z,8.9
2023-04-24T22:29:51.018Z,8.8
2023-04-24T22:32:06.182Z,8.8
2023-04-24T22:34:13.961Z,8.8
2023-04-24T22:36:22.349Z,8.8
2023-04-24T22:38:30.540Z,8.8
2023-04-24T22:41:29.533Z,8.8
2023-04-24T22:43:08.010Z,8.8
2023-04-24T22:45:17.794Z,8.8
2023-04-24T22:47:27.402Z,8.8
2023-04-24T22:49:35.828Z,8.8
2023-04-24T22:51:43.726Z,8.8
2023-04-24T22:53:52.291Z,8.8
2023-04-24T22:56:00.848Z,8.8
2023-04-24T22:58:08.810Z,8.8
2023-04-24T23:00:18.545Z,8.8
2023-04-24T23:02:29.520Z,8.8
2023-04-24T23:04:37.676Z,8.8
2023-04-24T23:06:45.468Z,8.8
2023-04-24T23:08:53.288Z,8.8
2023-04-24T23:11:01.016Z,8.8
2023-04-24T23:13:08.869Z,8.8
2023-04-24T23:15:18.059Z,8.8
2023-04-24T23:17:25.899Z,8.8
2023-04-24T23:19:33.731Z,8.8
2023-04-24T23:21:41.463Z,8.8
2023-04-24T23:23:50.516Z,8.8
2023-04-24T23:25:59.522Z,8.8
2023-04-24T23:28:07.263Z,8.8
2023-04-24T23:30:14.987Z,8.8
2023-04-24T23:32:24.208Z,8.8
2023-04-24T23:34:33.864Z,8.8
2023-04-24T23:36:41.666Z,8.8
2023-04-24T23:38:50.796Z,8.8
2023-04-24T23:40:59.128Z,8.8
2023-04-24T23:43:08.304Z,8.8
2023-04-24T23:45:16.774Z,8.8
2023-04-24T23:47:26.501Z,8.8
2023-04-24T23:49:34.285Z,8.9
2023-04-24T23:51:42.145Z,8.9
2023-04-24T23:53:50.057Z,8.9
2023-04-24T23:55:57.946Z,8.9
2023-04-24T23:58:05.824Z,8.9
